Terminal Aerodrome Forecast
Issued by NWS

Home | Current Version | Previous Version | Text Only | Print | Product List | Glossary On
Versions: 1 2 3 4 5 6 7 8 9 10 11 12 13 14 15 16 17 18
000
FTUS41 KCAR 312242 AAA
TAFPQI
TAF AMD
KPQI 312242Z 3123/0118 25008KT P6SM BKN080
     FM010100 25006KT P6SM SCT200
     FM011400 22007KT P6SM BKN040
      AMD LTD TO CLD VIS AND WIND=

USA.gov is the U.S. government's official web portal to all federal, state and local government web resources and services.